Time;durP1;ratioP1;P1;durP2;ratioP2;P2;SDS_P1;SDS_P2;PMS_P1;PMS_P2;Temp;Humidity;BMP_temperature;BMP_pressure;BME280_temperature;BME280_humidity;BME280_pressure;Samples;Min_cycle;Max_cycle;Signal;HPM_P1;HPM_P2
2021/12/19 00:08:26;;;;;;;916.50;826.43;;;6.50;99.90;;;;;;4994649;28;20825;-85
2021/12/19 00:10:13;;;;;;;922.13;830.93;;;6.50;99.90;;;;;;5000720;28;20479;-85
2021/12/19 00:12:40;;;;;;;925.27;834.83;;;6.40;99.90;;;;;;5017217;28;20441;-85
2021/12/19 00:15:08;;;;;;;928.17;836.47;;;6.50;99.90;;;;;;5015102;28;20473;-86
2021/12/19 00:17:35;;;;;;;928.93;835.97;;;6.40;99.90;;;;;;4996750;28;21024;-85
2021/12/19 00:20:04;;;;;;;932.20;839.93;;;6.50;99.90;;;;;;4997771;28;20845;-85
2021/12/19 00:22:32;;;;;;;929.37;838.17;;;6.40;99.90;;;;;;5017246;28;20477;-84
2021/12/19 00:25:00;;;;;;;930.03;837.20;;;6.50;99.90;;;;;;5016708;28;20576;-86
2021/12/19 00:27:27;;;;;;;932.50;840.90;;;6.50;99.90;;;;;;5018483;28;20459;-85
2021/12/19 00:29:54;;;;;;;936.50;843.50;;;6.40;99.90;;;;;;5007669;28;20478;-85
2021/12/19 00:32:21;;;;;;;937.53;844.63;;;6.40;99.90;;;;;;4999403;28;20477;-85
2021/12/19 00:34:50;;;;;;;936.60;843.70;;;6.50;99.90;;;;;;5007822;28;20481;-85
2021/12/19 00:37:19;;;;;;;944.03;850.37;;;6.60;99.90;;;;;;5016632;28;20556;-85
2021/12/19 00:39:46;;;;;;;952.97;858.17;;;6.50;99.90;;;;;;5006926;28;20477;-86
2021/12/19 00:42:14;;;;;;;967.33;869.27;;;6.50;99.90;;;;;;4995740;28;20478;-85
2021/12/19 00:44:42;;;;;;;967.67;871.70;;;6.50;99.90;;;;;;5003809;28;21004;-85
2021/12/19 00:47:09;;;;;;;958.20;862.87;;;6.50;99.90;;;;;;5015154;28;20453;-85
2021/12/19 00:49:36;;;;;;;963.53;867.00;;;6.50;99.90;;;;;;5009063;28;20857;-85
2021/12/19 00:52:04;;;;;;;963.83;867.50;;;6.50;99.90;;;;;;4996521;28;20446;-85
2021/12/19 00:54:33;;;;;;;959.37;862.87;;;6.50;99.90;;;;;;5002305;28;20533;-85
2021/12/19 00:57:00;;;;;;;957.00;861.20;;;6.60;99.90;;;;;;5015970;28;20532;-85
2021/12/19 00:59:27;;;;;;;969.60;871.90;;;6.60;99.90;;;;;;5011849;28;20505;-86
2021/12/19 01:01:53;;;;;;;950.77;853.47;;;6.60;99.90;;;;;;4996201;28;20461;-86
2021/12/19 01:04:21;;;;;;;956.93;859.40;;;6.50;99.90;;;;;;5010121;28;20479;-85
2021/12/19 01:06:49;;;;;;;951.10;854.27;;;6.60;99.90;;;;;;5015787;28;20479;-86
2021/12/19 01:09:16;;;;;;;954.80;857.80;;;6.60;99.90;;;;;;5001935;28;20478;-85
2021/12/19 01:11:48;;;;;;;962.03;864.60;;;6.60;99.90;;;;;;5012810;28;20481;-85
2021/12/19 01:14:16;;;;;;;958.63;860.73;;;6.50;99.90;;;;;;5019251;28;20536;-85
2021/12/19 01:16:43;;;;;;;954.20;855.40;;;6.50;99.90;;;;;;5002604;28;20450;-85
2021/12/19 01:19:10;;;;;;;966.73;865.00;;;6.60;99.90;;;;;;5000833;28;20480;-85
2021/12/19 01:21:37;;;;;;;960.60;860.67;;;6.60;99.90;;;;;;5001291;28;20454;-85
2021/12/19 01:24:04;;;;;;;960.10;861.00;;;6.50;99.90;;;;;;5001584;28;20481;-85
2021/12/19 01:26:31;;;;;;;963.83;865.47;;;6.50;99.90;;;;;;5001563;28;20477;-85
2021/12/19 01:28:59;;;;;;;961.70;862.60;;;6.60;99.90;;;;;;5010522;28;20498;-85
2021/12/19 01:31:26;;;;;;;963.27;865.40;;;6.50;99.90;;;;;;5021118;28;20480;-85
2021/12/19 01:33:53;;;;;;;955.77;856.90;;;6.60;99.90;;;;;;5013137;28;20450;-86
2021/12/19 01:36:20;;;;;;;955.70;858.30;;;6.60;99.90;;;;;;5001854;28;21005;-85
2021/12/19 01:38:47;;;;;;;953.87;855.13;;;6.60;99.90;;;;;;5008887;28;21027;-85
2021/12/19 01:41:14;;;;;;;948.60;852.60;;;6.60;99.90;;;;;;5021550;28;20505;-85
2021/12/19 01:43:41;;;;;;;948.73;850.83;;;6.60;99.90;;;;;;5003048;28;20477;-85
2021/12/19 01:46:10;;;;;;;958.77;861.30;;;6.50;99.90;;;;;;5002517;28;20449;-85
2021/12/19 01:48:37;;;;;;;964.27;866.27;;;6.50;99.90;;;;;;5019117;28;20806;-85
2021/12/19 01:51:04;;;;;;;952.67;854.80;;;6.60;99.90;;;;;;5021224;28;20461;-85
2021/12/19 01:53:31;;;;;;;963.90;866.27;;;6.60;99.90;;;;;;5005623;28;20454;-85
2021/12/19 01:55:58;;;;;;;960.03;861.87;;;6.60;99.90;;;;;;5002959;28;20529;-85
2021/12/19 01:58:25;;;;;;;955.63;858.63;;;6.60;99.90;;;;;;5003260;28;20529;-85
2021/12/19 02:00:55;;;;;;;961.57;863.77;;;6.50;99.90;;;;;;5009560;28;20553;-85
2021/12/19 02:03:25;;;;;;;957.07;860.10;;;6.50;99.90;;;;;;5012559;28;20470;-85
2021/12/19 02:05:52;;;;;;;952.47;855.70;;;6.60;99.90;;;;;;5009509;28;20446;-85
2021/12/19 02:08:19;;;;;;;963.33;866.27;;;6.60;99.90;;;;;;5022086;28;20457;-85
2021/12/19 02:10:47;;;;;;;965.00;867.87;;;6.70;99.90;;;;;;5014965;28;20496;-85
2021/12/19 02:13:15;;;;;;;961.57;865.07;;;6.60;99.90;;;;;;5001676;28;20454;-85
2021/12/19 02:15:43;;;;;;;956.03;859.93;;;6.60;99.90;;;;;;5006061;28;20460;-85
2021/12/19 02:18:12;;;;;;;943.30;847.03;;;6.60;99.90;;;;;;5022657;28;20477;-86
2021/12/19 02:20:42;;;;;;;936.30;841.40;;;6.60;99.90;;;;;;5022215;28;20484;-85
2021/12/19 02:23:11;;;;;;;929.37;835.10;;;6.50;99.90;;;;;;5022818;28;20916;-85
2021/12/19 02:25:39;;;;;;;940.63;847.40;;;6.60;99.90;;;;;;5019646;28;20449;-85
2021/12/19 02:28:08;;;;;;;941.53;846.47;;;6.60;99.90;;;;;;5014173;28;20480;-85
2021/12/19 02:30:35;;;;;;;937.43;843.37;;;6.60;99.90;;;;;;5023120;28;20854;-85
2021/12/19 02:33:02;;;;;;;941.40;847.90;;;6.60;99.90;;;;;;5024023;28;20489;-85
2021/12/19 02:35:33;;;;;;;937.80;845.50;;;6.60;99.90;;;;;;5022562;28;20453;-85
2021/12/19 02:49:19;;;;;;;930.67;840.07;;;6.60;99.90;;;;;;5004230;28;20557;-85
2021/12/19 02:51:46;;;;;;;939.23;846.87;;;6.60;99.90;;;;;;5017934;28;20461;-86
2021/12/19 02:54:14;;;;;;;938.70;844.87;;;6.50;99.90;;;;;;5023619;28;20459;-85
2021/12/19 02:56:41;;;;;;;940.00;845.80;;;6.60;99.90;;;;;;5008327;28;20465;-85
2021/12/19 02:59:07;;;;;;;936.40;843.03;;;6.50;99.90;;;;;;5015191;28;20560;-86
2021/12/19 03:01:34;;;;;;;936.13;842.70;;;6.60;99.90;;;;;;5021053;28;20465;-85
2021/12/19 03:04:01;;;;;;;936.50;842.90;;;6.60;99.90;;;;;;5003789;28;20513;-85
2021/12/19 03:06:28;;;;;;;931.30;838.80;;;6.60;99.90;;;;;;5004029;28;20517;-85
2021/12/19 03:08:58;;;;;;;940.10;848.17;;;6.50;99.90;;;;;;5023189;28;21035;-85
2021/12/19 03:19:42;;;;;;;959.17;863.67;;;6.60;99.90;;;;;;5002657;28;20526;-85
2021/12/19 03:22:08;;;;;;;963.87;865.80;;;6.60;99.90;;;;;;5005829;28;20485;-85
2021/12/19 03:24:35;;;;;;;971.27;871.43;;;6.60;99.90;;;;;;5023174;28;20477;-84
2021/12/19 03:27:04;;;;;;;974.07;876.70;;;6.60;99.90;;;;;;5019896;28;21014;-84
2021/12/19 03:29:31;;;;;;;969.47;871.43;;;6.50;99.90;;;;;;5002787;28;20873;-85
2021/12/19 03:31:58;;;;;;;968.67;871.13;;;6.70;99.90;;;;;;5005376;28;21017;-85
2021/12/19 03:34:25;;;;;;;969.60;870.80;;;6.70;99.90;;;;;;5021582;28;20460;-85
2021/12/19 03:36:52;;;;;;;975.10;875.63;;;6.60;99.90;;;;;;5019755;28;20536;-85
2021/12/19 03:39:32;;;;;;;982.47;879.87;;;6.60;99.90;;;;;;5003381;28;20839;-85
2021/12/19 03:41:59;;;;;;;986.20;883.80;;;6.60;99.90;;;;;;5020096;28;20543;-85
2021/12/19 03:44:27;;;;;;;995.00;891.40;;;6.70;99.90;;;;;;5023407;28;20496;-85
2021/12/19 03:46:54;;;;;;;996.07;890.80;;;6.60;99.90;;;;;;5006533;28;20832;-85
2021/12/19 03:49:21;;;;;;;997.37;893.57;;;6.60;99.90;;;;;;5017859;28;20465;-85
2021/12/19 03:51:48;;;;;;;999.10;893.00;;;6.60;99.90;;;;;;5022949;28;20491;-85
2021/12/19 03:54:16;;;;;;;994.27;886.90;;;6.60;99.90;;;;;;5008562;28;20526;-85
2021/12/19 03:56:43;;;;;;;992.77;886.33;;;6.60;99.90;;;;;;5002857;28;20521;-85
2021/12/19 03:59:13;;;;;;;993.03;887.63;;;6.50;99.90;;;;;;5014783;28;21022;-85
2021/12/19 04:01:46;;;;;;;990.37;885.87;;;6.60;99.90;;;;;;5016090;28;20525;-85
2021/12/19 04:04:13;;;;;;;991.73;882.90;;;6.60;99.90;;;;;;5009657;28;20470;-84
2021/12/19 04:06:40;;;;;;;988.03;882.33;;;6.60;99.90;;;;;;4998629;28;20546;-85
2021/12/19 04:09:07;;;;;;;988.43;880.90;;;6.60;99.90;;;;;;5010813;28;20492;-85
2021/12/19 04:11:34;;;;;;;981.80;876.33;;;6.60;99.90;;;;;;5004884;28;20553;-85
2021/12/19 04:14:01;;;;;;;979.50;873.07;;;6.60;99.90;;;;;;5008716;28;20449;-86
2021/12/19 04:16:28;;;;;;;982.17;875.80;;;6.60;99.90;;;;;;5021463;28;20520;-78
2021/12/19 04:19:01;;;;;;;978.93;871.77;;;6.50;99.90;;;;;;5010397;28;20462;-83
2021/12/19 04:21:28;;;;;;;981.17;874.17;;;6.60;99.90;;;;;;5006959;28;20487;-83
2021/12/19 04:23:55;;;;;;;980.90;873.17;;;6.60;99.90;;;;;;5006477;28;20986;-85
2021/12/19 04:26:22;;;;;;;975.60;869.53;;;6.60;99.90;;;;;;5017814;28;20504;-83
2021/12/19 04:28:49;;;;;;;979.27;874.20;;;6.50;99.90;;;;;;5018357;28;20464;-85
2021/12/19 04:31:15;;;;;;;996.03;891.00;;;6.60;99.90;;;;;;5016892;28;20450;-84
2021/12/19 04:33:42;;;;;;;994.70;888.77;;;6.50;99.90;;;;;;5003528;28;20442;-84
2021/12/19 04:36:17;;;;;;;994.97;887.87;;;6.60;99.90;;;;;;5020573;28;20449;-84
2021/12/19 04:52:57;;;;;;;992.70;886.50;;;6.60;99.90;;;;;;5004529;28;20446;-84
2021/12/19 05:01:32;;;;;;;990.33;883.80;;;6.60;99.90;;;;;;5097208;28;20533;-84
2021/12/19 05:04:10;;;;;;;986.70;880.13;;;6.60;99.90;;;;;;5094746;28;21001;-84
2021/12/19 05:14:01;;;;;;;993.83;887.50;;;6.60;99.90;;;;;;5096020;28;20442;-83
2021/12/19 05:15:05;;;;;;;987.10;880.80;;;6.60;99.90;;;;;;5094822;28;20429;-84
2021/12/19 05:17:33;;;;;;;987.67;880.10;;;6.60;99.90;;;;;;5094470;28;20494;-81
2021/12/19 05:20:13;;;;;;;981.90;876.00;;;6.60;99.90;;;;;;5095674;28;21043;-84
2021/12/19 05:22:46;;;;;;;975.77;870.00;;;6.60;99.90;;;;;;5094818;28;20457;-83
2021/12/19 05:25:15;;;;;;;974.93;868.47;;;6.60;99.90;;;;;;5093708;28;20450;-83
2021/12/19 05:27:43;;;;;;;981.60;874.60;;;6.60;99.90;;;;;;5092149;28;20464;-83
2021/12/19 05:30:13;;;;;;;975.13;869.23;;;6.50;99.90;;;;;;5095099;28;20468;-85
2021/12/19 05:32:41;;;;;;;975.10;868.33;;;6.60;99.90;;;;;;5095275;28;20962;-83
2021/12/19 05:35:09;;;;;;;970.33;863.90;;;6.60;99.90;;;;;;5095878;28;20449;-83
2021/12/19 05:45:51;;;;;;;969.93;863.00;;;6.60;99.90;;;;;;5092518;28;20923;-84
2021/12/19 05:48:18;;;;;;;973.70;867.73;;;6.60;99.90;;;;;;5093187;28;20522;-83
2021/12/19 05:50:44;;;;;;;978.60;870.80;;;6.60;99.90;;;;;;5093088;28;20548;-83
2021/12/19 05:53:11;;;;;;;979.60;871.83;;;6.60;99.90;;;;;;5092164;28;20456;-84
2021/12/19 05:55:39;;;;;;;984.97;875.90;;;6.60;99.90;;;;;;5092162;28;20476;-83
2021/12/19 05:58:07;;;;;;;983.87;870.13;;;6.60;99.90;;;;;;5099639;28;20475;-83
2021/12/19 06:00:34;;;;;;;989.30;871.73;;;6.50;99.90;;;;;;5097664;28;20472;-83
2021/12/19 06:03:03;;;;;;;982.60;873.60;;;6.60;99.90;;;;;;5091868;28;20493;-83
2021/12/19 06:05:30;;;;;;;982.63;874.20;;;6.60;99.90;;;;;;5094079;28;20969;-83
2021/12/19 06:07:57;;;;;;;975.50;865.70;;;6.60;99.90;;;;;;5091780;28;20470;-83
2021/12/19 06:10:28;;;;;;;984.67;873.57;;;6.60;99.90;;;;;;5079454;28;20469;-83
2021/12/19 06:12:57;;;;;;;980.27;873.87;;;6.60;99.90;;;;;;5079779;28;20808;-83
2021/12/19 06:15:24;;;;;;;983.00;876.70;;;6.60;99.90;;;;;;5079632;28;20504;-83
2021/12/19 06:17:52;;;;;;;976.03;870.37;;;6.60;99.90;;;;;;5080348;28;20493;-84
2021/12/19 06:20:21;;;;;;;982.53;872.47;;;6.60;99.90;;;;;;5081149;28;20498;-83
2021/12/19 06:22:48;;;;;;;976.23;867.97;;;6.60;99.90;;;;;;5079549;28;20454;-83
2021/12/19 06:25:15;;;;;;;986.50;866.60;;;6.50;99.90;;;;;;5080709;28;20457;-83
2021/12/19 06:27:42;;;;;;;986.23;867.50;;;6.60;99.90;;;;;;5081276;28;20446;-83
2021/12/19 06:30:10;;;;;;;980.33;871.63;;;6.60;99.90;;;;;;5079038;28;20848;-82
2021/12/19 06:32:37;;;;;;;982.57;874.20;;;6.50;99.90;;;;;;5073857;28;20449;-81
2021/12/19 06:35:10;;;;;;;993.77;884.17;;;6.50;99.90;;;;;;5082707;28;20548;-83
2021/12/19 06:37:39;;;;;;;982.27;872.77;;;6.60;99.90;;;;;;5077784;28;20482;-84
2021/12/19 06:40:08;;;;;;;1000.17;890.30;;;6.60;99.90;;;;;;5077286;28;20467;-82
2021/12/19 06:42:35;;;;;;;990.87;882.30;;;6.60;99.90;;;;;;5078714;28;20533;-82
2021/12/19 06:45:02;;;;;;;1000.57;891.30;;;6.60;99.90;;;;;;5076500;28;20450;-82
2021/12/19 06:47:29;;;;;;;999.80;890.60;;;6.60;99.90;;;;;;5076805;28;20892;-83
2021/12/19 06:49:56;;;;;;;999.27;890.57;;;6.60;99.90;;;;;;5077223;28;20830;-83
2021/12/19 06:52:22;;;;;;;1010.33;899.90;;;6.60;99.90;;;;;;5076356;28;20485;-82
2021/12/19 06:54:51;;;;;;;1004.53;893.83;;;6.60;99.90;;;;;;5076716;28;20476;-82
2021/12/19 06:57:17;;;;;;;1007.77;900.23;;;6.60;99.90;;;;;;5074464;28;20485;-83
2021/12/19 06:59:44;;;;;;;1009.07;900.57;;;6.50;99.90;;;;;;5075419;28;20470;-82
2021/12/19 07:02:16;;;;;;;1006.20;901.80;;;6.60;99.90;;;;;;5076066;28;20961;-81
2021/12/19 07:04:43;;;;;;;1015.07;909.37;;;6.50;99.90;;;;;;5077525;28;20884;-83
2021/12/19 07:07:10;;;;;;;1008.10;905.87;;;6.50;99.90;;;;;;5078497;28;20452;-83
2021/12/19 07:09:38;;;;;;;1002.37;904.70;;;6.60;99.90;;;;;;5077190;28;20471;-82
2021/12/19 07:12:08;;;;;;;993.67;897.13;;;6.40;99.90;;;;;;5077240;28;20538;-83
2021/12/19 07:14:35;;;;;;;979.37;883.53;;;6.20;99.90;;;;;;5078252;28;20812;-83
2021/12/19 07:17:03;;;;;;;966.80;873.47;;;6.10;99.90;;;;;;5078728;28;20470;-83
2021/12/19 07:19:30;;;;;;;990.30;896.20;;;6.20;99.90;;;;;;5079488;28;20471;-82
2021/12/19 07:21:57;;;;;;;959.53;866.67;;;6.20;99.90;;;;;;5079778;28;20446;-84
2021/12/19 07:24:23;;;;;;;980.00;885.60;;;6.00;99.90;;;;;;5081021;28;20450;-85
2021/12/19 07:26:50;;;;;;;960.73;870.83;;;6.10;99.90;;;;;;5079841;28;20461;-83
2021/12/19 07:29:18;;;;;;;950.50;862.37;;;6.00;99.90;;;;;;5079329;28;20474;-83
2021/12/19 07:31:45;;;;;;;921.53;835.10;;;6.10;99.90;;;;;;5079771;28;20446;-84
2021/12/19 07:34:12;;;;;;;895.43;813.23;;;6.00;99.90;;;;;;5079019;28;20458;-83
2021/12/19 07:36:42;;;;;;;885.63;803.63;;;6.00;99.90;;;;;;5079098;28;20451;-83
2021/12/19 07:39:23;;;;;;;866.23;785.63;;;6.00;99.90;;;;;;5079301;28;20474;-82
2021/12/19 07:41:50;;;;;;;813.17;736.77;;;6.00;99.90;;;;;;5082276;28;20542;-84
2021/12/19 07:44:18;;;;;;;828.07;750.33;;;6.20;99.90;;;;;;5082017;28;20454;-84
2021/12/19 07:46:47;;;;;;;849.43;769.20;;;6.10;99.90;;;;;;5082428;28;20450;-84
2021/12/19 07:49:14;;;;;;;848.00;767.20;;;6.10;99.90;;;;;;5081428;28;20969;-84
2021/12/19 07:51:41;;;;;;;858.53;777.13;;;6.10;99.90;;;;;;5080755;28;20455;-84
2021/12/19 07:54:08;;;;;;;846.13;766.13;;;6.00;99.90;;;;;;5081085;28;20447;-83
2021/12/19 07:56:35;;;;;;;846.20;766.33;;;6.10;99.90;;;;;;5082190;28;20465;-84
2021/12/19 07:59:01;;;;;;;836.77;757.83;;;6.00;99.90;;;;;;5084907;28;20475;-84
2021/12/19 08:01:30;;;;;;;844.40;763.60;;;6.10;99.90;;;;;;5086253;28;20465;-84
2021/12/19 08:03:58;;;;;;;865.33;783.43;;;6.10;99.90;;;;;;5085482;28;20518;-83
2021/12/19 08:06:28;;;;;;;887.80;804.80;;;6.10;99.90;;;;;;5083891;28;20454;-84
2021/12/19 08:08:57;;;;;;;910.63;826.27;;;6.20;99.90;;;;;;5084823;28;20461;-83
2021/12/19 08:11:42;;;;;;;923.73;838.00;;;6.20;99.90;;;;;;5084343;28;20458;-84
2021/12/19 08:14:17;;;;;;;916.90;830.90;;;6.20;99.90;;;;;;5085352;28;20523;-83
2021/12/19 08:16:49;;;;;;;928.77;839.57;;;6.10;99.90;;;;;;5081992;28;20451;-83
2021/12/19 08:19:30;;;;;;;922.53;832.63;;;6.20;99.90;;;;;;5077152;28;20505;-83
2021/12/19 08:21:57;;;;;;;944.50;853.90;;;6.20;99.90;;;;;;5077953;28;20445;-82
2021/12/19 08:24:24;;;;;;;937.50;847.40;;;6.30;99.90;;;;;;5078452;28;20522;-83
2021/12/19 08:27:04;;;;;;;935.80;846.93;;;6.30;99.90;;;;;;5076197;28;20454;-82
2021/12/19 08:29:31;;;;;;;922.77;835.80;;;6.30;99.90;;;;;;5076169;28;20477;-83
2021/12/19 08:32:00;;;;;;;943.20;853.80;;;6.30;99.90;;;;;;5078712;28;20454;-83
2021/12/19 08:34:28;;;;;;;914.47;826.00;;;6.30;99.90;;;;;;5076558;28;20515;-83
2021/12/19 08:37:05;;;;;;;912.40;824.73;;;6.40;99.90;;;;;;5075371;28;20541;-83
2021/12/19 08:39:44;;;;;;;896.10;808.87;;;6.40;99.90;;;;;;5076993;28;20454;-83
2021/12/19 08:42:15;;;;;;;891.37;805.30;;;6.40;99.90;;;;;;5076328;28;20447;-84
2021/12/19 08:47:28;;;;;;;891.53;807.53;;;6.50;99.90;;;;;;5079967;28;20504;-84
2021/12/19 08:49:55;;;;;;;881.33;798.50;;;6.50;99.90;;;;;;5081263;28;20510;-83
2021/12/19 08:56:06;;;;;;;841.70;761.87;;;6.50;99.90;;;;;;4953657;28;20484;-84
2021/12/19 08:58:33;;;;;;;828.83;751.57;;;6.60;99.90;;;;;;5019261;28;20567;-83
2021/12/19 09:01:02;;;;;;;850.83;771.73;;;6.60;99.90;;;;;;5073039;28;20545;-85
2021/12/19 09:03:57;;;;;;;840.30;760.00;;;6.70;99.90;;;;;;5079337;28;20451;-84
2021/12/19 09:06:23;;;;;;;822.83;746.97;;;6.70;99.90;;;;;;5070809;28;20446;-85
2021/12/19 09:08:50;;;;;;;840.80;762.60;;;6.60;99.90;;;;;;5078726;28;20466;-85
2021/12/19 09:11:17;;;;;;;860.30;781.70;;;6.60;99.90;;;;;;5078717;28;20456;-85
2021/12/19 09:13:44;;;;;;;894.90;812.70;;;6.60;99.90;;;;;;5076853;28;20490;-84
2021/12/19 09:16:11;;;;;;;883.07;801.70;;;6.70;99.90;;;;;;5076998;28;20453;-85
2021/12/19 09:18:38;;;;;;;876.80;796.17;;;6.60;99.90;;;;;;5079172;28;20474;-85
2021/12/19 09:21:07;;;;;;;851.90;773.77;;;6.70;99.90;;;;;;5075847;28;20790;-84
2021/12/19 09:23:33;;;;;;;855.77;776.57;;;6.70;99.90;;;;;;5075567;28;20887;-86
2021/12/19 09:26:00;;;;;;;840.30;761.90;;;6.80;99.90;;;;;;5076328;28;20541;-85
2021/12/19 09:28:27;;;;;;;823.17;747.60;;;6.80;99.90;;;;;;5075577;28;20457;-87
2021/12/19 09:31:05;;;;;;;822.40;747.80;;;6.80;99.90;;;;;;5074662;28;20481;-85
2021/12/19 09:33:32;;;;;;;813.83;739.17;;;6.80;99.90;;;;;;5075240;28;20505;-85
2021/12/19 09:35:59;;;;;;;809.57;734.87;;;7.10;99.90;;;;;;5076328;28;20966;-85
2021/12/19 09:38:28;;;;;;;807.17;732.97;;;6.90;99.90;;;;;;5075813;28;20474;-84
2021/12/19 09:41:00;;;;;;;785.17;713.63;;;6.90;99.90;;;;;;5057175;28;20474;-85
2021/12/19 09:43:42;;;;;;;802.47;730.63;;;7.00;99.90;;;;;;5066196;28;20927;-86
2021/12/19 09:46:12;;;;;;;810.43;739.63;;;7.10;99.90;;;;;;5079287;28;20529;-85
2021/12/19 09:48:40;;;;;;;788.80;720.20;;;7.10;99.90;;;;;;5078921;28;20457;-84
2021/12/19 09:51:09;;;;;;;794.60;725.80;;;7.20;99.90;;;;;;5078826;28;20456;-85
2021/12/19 09:53:47;;;;;;;809.87;740.07;;;7.20;99.90;;;;;;5079935;28;20549;-83
2021/12/19 09:56:17;;;;;;;781.70;717.37;;;7.20;99.90;;;;;;5078072;28;20519;-84
2021/12/19 09:58:45;;;;;;;793.53;726.93;;;7.10;99.90;;;;;;5064742;28;20507;-85
2021/12/19 10:01:13;;;;;;;818.33;749.37;;;7.30;99.90;;;;;;5056148;28;20454;-85
2021/12/19 10:03:41;;;;;;;802.10;735.10;;;7.30;99.90;;;;;;5064627;28;20453;-85
2021/12/19 10:06:17;;;;;;;799.13;732.73;;;7.30;99.90;;;;;;5075732;28;20533;-84
2021/12/19 10:08:48;;;;;;;800.13;732.40;;;7.30;99.90;;;;;;5075146;28;20476;-84
2021/12/19 10:11:43;;;;;;;789.37;724.03;;;7.40;99.90;;;;;;5075259;28;20504;-85
2021/12/19 10:14:28;;;;;;;814.70;747.90;;;7.40;99.90;;;;;;5069945;28;20478;-85
2021/12/19 10:16:57;;;;;;;823.40;758.27;;;7.30;99.90;;;;;;5059425;28;20457;-85
2021/12/19 10:20:09;;;;;;;828.70;763.30;;;7.30;99.90;;;;;;5068802;28;20517;-85
2021/12/19 10:22:38;;;;;;;812.03;746.37;;;7.20;99.90;;;;;;5042365;28;20895;-85
2021/12/19 10:25:18;;;;;;;836.70;768.80;;;7.30;99.90;;;;;;5056610;28;20471;-85
2021/12/19 10:27:46;;;;;;;828.13;761.30;;;7.30;99.90;;;;;;5055476;28;20439;-85
2021/12/19 10:30:19;;;;;;;836.43;770.07;;;7.20;99.90;;;;;;5057723;28;20471;-85
2021/12/19 10:32:59;;;;;;;829.83;762.43;;;7.30;99.90;;;;;;5056990;28;20454;-86
2021/12/19 10:35:30;;;;;;;812.70;746.00;;;7.20;99.90;;;;;;5057250;28;20497;-85
2021/12/19 10:37:58;;;;;;;824.67;755.47;;;7.20;99.90;;;;;;5055958;28;20455;-85
2021/12/19 10:40:52;;;;;;;798.80;732.53;;;7.30;99.90;;;;;;5056195;28;20474;-86
2021/12/19 10:43:20;;;;;;;816.33;748.13;;;7.20;99.90;;;;;;5045973;28;20484;-85
2021/12/19 10:45:50;;;;;;;812.73;742.60;;;7.20;99.90;;;;;;5056218;28;20543;-85
2021/12/19 10:48:23;;;;;;;806.37;737.03;;;7.30;99.90;;;;;;5057157;28;20443;-85
2021/12/19 10:50:53;;;;;;;804.83;736.93;;;7.20;99.90;;;;;;5056180;28;20507;-85
2021/12/19 10:53:25;;;;;;;838.53;768.57;;;7.20;99.90;;;;;;5056843;28;20458;-84
2021/12/19 10:55:53;;;;;;;863.07;788.87;;;7.20;99.90;;;;;;5076718;28;20798;-85
2021/12/19 10:58:33;;;;;;;858.67;784.97;;;7.20;99.90;;;;;;5076512;28;20479;-86
2021/12/19 11:01:29;;;;;;;859.37;784.27;;;7.20;99.90;;;;;;5059385;28;20454;-84
2021/12/19 11:03:59;;;;;;;871.67;794.47;;;7.20;99.90;;;;;;5063341;28;20473;-85
2021/12/19 11:06:33;;;;;;;876.97;798.50;;;7.30;99.90;;;;;;5080437;28;20450;-85
2021/12/19 11:09:04;;;;;;;866.30;788.10;;;7.30;99.90;;;;;;5078596;28;20493;-85
2021/12/19 11:11:48;;;;;;;851.17;774.77;;;7.40;99.90;;;;;;5077796;28;20884;-85
2021/12/19 11:14:26;;;;;;;867.17;791.10;;;7.50;99.90;;;;;;5079630;28;20446;-84
2021/12/19 11:22:54;;;;;;;831.43;760.63;;;7.30;99.90;;;;;;3186095;26;20573;-85
2021/12/19 11:26:02;;;;;;;863.07;788.07;;;7.20;99.90;;;;;;5044694;28;20459;-84
2021/12/19 11:29:00;;;;;;;863.27;788.10;;;7.20;99.90;;;;;;5042570;28;20527;-84
2021/12/19 11:31:30;;;;;;;815.37;745.07;;;7.30;99.90;;;;;;5020635;28;20445;-85
2021/12/19 11:34:19;;;;;;;813.93;744.07;;;7.20;99.90;;;;;;5030738;28;20523;-84
2021/12/19 11:36:51;;;;;;;823.77;750.07;;;7.20;99.90;;;;;;5041774;28;20870;-84
2021/12/19 11:39:21;;;;;;;830.33;757.83;;;7.20;99.90;;;;;;5031421;28;20534;-85
2021/12/19 11:42:06;;;;;;;848.33;771.67;;;7.20;99.90;;;;;;5039920;28;20491;-84
2021/12/19 11:44:40;;;;;;;825.43;750.83;;;7.30;99.90;;;;;;5039251;28;20459;-84
2021/12/19 11:47:15;;;;;;;810.13;737.57;;;7.30;99.90;;;;;;5041624;28;20831;-84
2021/12/19 11:50:14;;;;;;;815.60;742.87;;;7.30;99.90;;;;;;5026434;28;20468;-84
2021/12/19 11:52:42;;;;;;;828.03;754.07;;;7.30;99.90;;;;;;5018928;28;20457;-85
2021/12/19 11:55:24;;;;;;;845.53;768.93;;;7.40;99.90;;;;;;5035930;28;20459;-86
2021/12/19 11:58:32;;;;;;;845.53;769.70;;;7.40;99.90;;;;;;5040025;28;20483;-85
2021/12/19 12:01:08;;;;;;;849.03;771.77;;;7.50;99.90;;;;;;5020047;28;20487;-84
2021/12/19 12:03:58;;;;;;;848.13;772.63;;;7.60;99.90;;;;;;5019677;28;20597;-84
2021/12/19 12:06:41;;;;;;;856.20;780.23;;;7.50;99.90;;;;;;5019873;28;20455;-85
2021/12/19 12:09:43;;;;;;;814.37;744.10;;;7.50;99.90;;;;;;5019948;28;20476;-84
2021/12/19 12:12:20;;;;;;;813.70;743.10;;;7.40;99.90;;;;;;4958585;29;20458;-84
2021/12/19 12:15:08;;;;;;;820.30;749.30;;;7.40;99.90;;;;;;5022286;28;20452;-84
2021/12/19 12:17:53;;;;;;;812.57;741.30;;;7.40;99.90;;;;;;5040365;28;20507;-84
2021/12/19 12:20:29;;;;;;;819.73;747.20;;;7.40;99.90;;;;;;5039154;28;20590;-84
2021/12/19 12:23:08;;;;;;;813.17;742.50;;;7.40;99.90;;;;;;5039934;28;20456;-84
2021/12/19 12:25:41;;;;;;;808.10;737.50;;;7.40;99.90;;;;;;5039426;28;20864;-84
2021/12/19 12:28:10;;;;;;;779.53;711.80;;;7.30;99.90;;;;;;5039095;28;20461;-84
2021/12/19 12:30:45;;;;;;;762.20;696.53;;;7.30;99.90;;;;;;5023484;28;20477;-84
2021/12/19 12:33:15;;;;;;;734.27;675.10;;;7.20;99.90;;;;;;5034326;28;20462;-84
2021/12/19 12:35:45;;;;;;;713.60;662.93;;;7.30;99.90;;;;;;5040147;28;20837;-86
2021/12/19 12:38:19;;;;;;;718.00;666.90;;;7.20;99.90;;;;;;5038972;28;20497;-86
2021/12/19 12:41:07;;;;;;;726.90;674.73;;;7.20;99.90;;;;;;5037951;28;20468;-87
2021/12/19 12:43:37;;;;;;;733.40;679.30;;;7.10;99.90;;;;;;5022260;28;20459;-86
2021/12/19 12:46:22;;;;;;;732.33;679.33;;;7.10;99.90;;;;;;5019657;28;20460;-87
2021/12/19 12:48:57;;;;;;;729.67;677.17;;;7.00;99.90;;;;;;5019241;28;20511;-87
2021/12/19 12:51:30;;;;;;;725.03;672.00;;;7.00;99.90;;;;;;5030940;28;20448;-86
2021/12/19 12:54:04;;;;;;;728.07;674.00;;;7.10;99.90;;;;;;5040901;28;20483;-86
2021/12/19 12:56:36;;;;;;;722.87;669.83;;;7.10;99.90;;;;;;5037646;28;20456;-86
2021/12/19 12:59:05;;;;;;;722.37;668.80;;;7.10;99.90;;;;;;5034489;28;20473;-88
2021/12/19 13:01:39;;;;;;;733.47;678.10;;;7.10;99.90;;;;;;5019395;28;20460;-86
2021/12/19 13:04:17;;;;;;;737.53;680.47;;;7.20;99.90;;;;;;5032218;28;20456;-87
2021/12/19 13:06:52;;;;;;;729.93;676.83;;;7.10;99.90;;;;;;5039320;28;20548;-87
2021/12/19 13:09:24;;;;;;;729.80;677.00;;;7.00;99.90;;;;;;5036837;28;20477;-86
2021/12/19 13:11:59;;;;;;;729.97;674.20;;;6.90;99.90;;;;;;5020814;28;21243;-86
2021/12/19 13:14:31;;;;;;;729.30;676.30;;;7.00;99.90;;;;;;5019657;28;20532;-87
2021/12/19 13:17:04;;;;;;;725.67;670.80;;;7.00;99.90;;;;;;5037805;28;20483;-86
2021/12/19 13:19:54;;;;;;;721.83;668.83;;;7.00;99.90;;;;;;5041455;28;20847;-86
2021/12/19 13:22:34;;;;;;;720.07;669.87;;;7.00;99.90;;;;;;5039461;28;20444;-86
2021/12/19 13:25:05;;;;;;;724.07;670.43;;;7.00;99.90;;;;;;5025103;28;20459;-86
2021/12/19 13:27:35;;;;;;;715.97;663.37;;;7.00;99.90;;;;;;5031036;28;20496;-85
2021/12/19 13:30:10;;;;;;;721.23;668.90;;;7.00;99.90;;;;;;5020044;28;20496;-85
2021/12/19 13:32:39;;;;;;;724.03;669.50;;;7.10;99.90;;;;;;5020505;28;20456;-85
2021/12/19 13:35:12;;;;;;;726.00;671.93;;;7.00;99.90;;;;;;5020283;28;20457;-85
2021/12/19 13:37:52;;;;;;;724.03;670.23;;;7.10;99.90;;;;;;5020297;28;20523;-85
2021/12/19 13:40:20;;;;;;;716.10;664.90;;;7.10;99.90;;;;;;5020315;28;20571;-85
2021/12/19 13:42:50;;;;;;;725.53;671.50;;;7.10;99.90;;;;;;5042463;28;20463;-83
2021/12/19 13:45:44;;;;;;;713.93;663.73;;;7.00;99.90;;;;;;5033677;28;20453;-85
2021/12/19 13:48:30;;;;;;;715.90;665.43;;;7.00;99.90;;;;;;5017932;28;20437;-86
2021/12/19 13:51:05;;;;;;;711.80;661.90;;;6.90;99.90;;;;;;5015041;28;20557;-85